sensor_id;sensor_type;location;lat;lon;timestamp;P1;durP1;ratioP1;P2;durP2;ratioP2
23129;SDS011;11734;51.046;13.778;2022-12-18T00:01:16;55.00;;;30.27;;
23129;SDS011;11734;51.046;13.778;2022-12-18T00:03:43;51.57;;;28.77;;
23129;SDS011;11734;51.046;13.778;2022-12-18T00:06:13;53.33;;;30.37;;
23129;SDS011;11734;51.046;13.778;2022-12-18T00:08:41;53.70;;;29.30;;
23129;SDS011;11734;51.046;13.778;2022-12-18T00:11:10;53.33;;;29.63;;
23129;SDS011;11734;51.046;13.778;2022-12-18T00:13:38;54.10;;;28.70;;
23129;SDS011;11734;51.046;13.778;2022-12-18T00:16:07;52.27;;;29.17;;
23129;SDS011;11734;51.046;13.778;2022-12-18T00:18:36;50.37;;;28.47;;
23129;SDS011;11734;51.046;13.778;2022-12-18T00:21:05;53.93;;;28.50;;
23129;SDS011;11734;51.046;13.778;2022-12-18T00:23:33;48.83;;;27.27;;
23129;SDS011;11734;51.046;13.778;2022-12-18T00:26:02;50.90;;;28.00;;
23129;SDS011;11734;51.046;13.778;2022-12-18T00:28:29;55.70;;;28.27;;
23129;SDS011;11734;51.046;13.778;2022-12-18T00:31:04;50.53;;;28.00;;
23129;SDS011;11734;51.046;13.778;2022-12-18T00:33:32;47.03;;;25.83;;
23129;SDS011;11734;51.046;13.778;2022-12-18T00:36:03;51.53;;;28.27;;
23129;SDS011;11734;51.046;13.778;2022-12-18T00:38:31;50.97;;;26.10;;
23129;SDS011;11734;51.046;13.778;2022-12-18T00:40:58;48.83;;;27.50;;
23129;SDS011;11734;51.046;13.778;2022-12-18T00:43:25;51.57;;;27.90;;
23129;SDS011;11734;51.046;13.778;2022-12-18T00:45:53;48.30;;;26.13;;
23129;SDS011;11734;51.046;13.778;2022-12-18T00:48:20;45.07;;;24.87;;
23129;SDS011;11734;51.046;13.778;2022-12-18T00:50:48;45.53;;;24.53;;
23129;SDS011;11734;51.046;13.778;2022-12-18T00:53:15;44.20;;;24.33;;
23129;SDS011;11734;51.046;13.778;2022-12-18T00:55:43;44.33;;;25.23;;
23129;SDS011;11734;51.046;13.778;2022-12-18T00:58:10;44.13;;;26.13;;
23129;SDS011;11734;51.046;13.778;2022-12-18T01:00:38;43.50;;;24.90;;
23129;SDS011;11734;51.046;13.778;2022-12-18T01:03:10;46.37;;;24.73;;
23129;SDS011;11734;51.046;13.778;2022-12-18T01:05:40;42.57;;;24.07;;
23129;SDS011;11734;51.046;13.778;2022-12-18T01:08:07;40.93;;;24.67;;
23129;SDS011;11734;51.046;13.778;2022-12-18T01:10:34;40.77;;;22.73;;
23129;SDS011;11734;51.046;13.778;2022-12-18T01:13:02;41.47;;;23.17;;
23129;SDS011;11734;51.046;13.778;2022-12-18T01:15:29;44.83;;;25.00;;
23129;SDS011;11734;51.046;13.778;2022-12-18T01:17:56;42.20;;;23.40;;
23129;SDS011;11734;51.046;13.778;2022-12-18T01:20:25;38.67;;;22.33;;
23129;SDS011;11734;51.046;13.778;2022-12-18T01:22:53;38.57;;;21.87;;
23129;SDS011;11734;51.046;13.778;2022-12-18T01:25:20;39.23;;;21.70;;
23129;SDS011;11734;51.046;13.778;2022-12-18T01:27:49;38.17;;;21.23;;
23129;SDS011;11734;51.046;13.778;2022-12-18T01:30:16;34.57;;;21.43;;
23129;SDS011;11734;51.046;13.778;2022-12-18T01:32:44;36.40;;;22.30;;
23129;SDS011;11734;51.046;13.778;2022-12-18T01:35:11;35.20;;;20.93;;
23129;SDS011;11734;51.046;13.778;2022-12-18T01:37:39;33.47;;;19.90;;
23129;SDS011;11734;51.046;13.778;2022-12-18T01:40:06;33.93;;;20.27;;
23129;SDS011;11734;51.046;13.778;2022-12-18T01:42:34;31.33;;;19.17;;
23129;SDS011;11734;51.046;13.778;2022-12-18T01:47:33;31.33;;;19.40;;
23129;SDS011;11734;51.046;13.778;2022-12-18T01:52:36;33.30;;;19.63;;
23129;SDS011;11734;51.046;13.778;2022-12-18T01:55:04;35.70;;;20.87;;
23129;SDS011;11734;51.046;13.778;2022-12-18T01:57:33;35.33;;;20.20;;
23129;SDS011;11734;51.046;13.778;2022-12-18T02:00:04;34.20;;;20.83;;
23129;SDS011;11734;51.046;13.778;2022-12-18T02:02:51;36.80;;;21.70;;
23129;SDS011;11734;51.046;13.778;2022-12-18T02:05:29;35.63;;;20.67;;
23129;SDS011;11734;51.046;13.778;2022-12-18T02:16:05;33.97;;;20.07;;
23129;SDS011;11734;51.046;13.778;2022-12-18T02:18:38;33.03;;;17.97;;
23129;SDS011;11734;51.046;13.778;2022-12-18T02:21:17;29.37;;;17.03;;
23129;SDS011;11734;51.046;13.778;2022-12-18T02:23:51;28.17;;;16.90;;
23129;SDS011;11734;51.046;13.778;2022-12-18T02:26:23;27.37;;;16.63;;
23129;SDS011;11734;51.046;13.778;2022-12-18T02:28:55;26.77;;;16.20;;
23129;SDS011;11734;51.046;13.778;2022-12-18T02:31:26;27.90;;;16.00;;
23129;SDS011;11734;51.046;13.778;2022-12-18T02:33:58;27.13;;;16.50;;
23129;SDS011;11734;51.046;13.778;2022-12-18T02:36:36;28.77;;;16.40;;
23129;SDS011;11734;51.046;13.778;2022-12-18T02:39:05;27.83;;;16.07;;
23129;SDS011;11734;51.046;13.778;2022-12-18T02:41:35;26.03;;;16.13;;
23129;SDS011;11734;51.046;13.778;2022-12-18T02:44:07;26.73;;;15.63;;
23129;SDS011;11734;51.046;13.778;2022-12-18T02:46:35;24.83;;;15.33;;
23129;SDS011;11734;51.046;13.778;2022-12-18T02:49:24;25.67;;;15.63;;
23129;SDS011;11734;51.046;13.778;2022-12-18T02:52:18;25.27;;;15.20;;
23129;SDS011;11734;51.046;13.778;2022-12-18T03:00:45;28.10;;;15.50;;
23129;SDS011;11734;51.046;13.778;2022-12-18T03:03:14;25.40;;;14.83;;
23129;SDS011;11734;51.046;13.778;2022-12-18T03:08:42;24.07;;;14.67;;
23129;SDS011;11734;51.046;13.778;2022-12-18T03:11:12;26.50;;;14.53;;
23129;SDS011;11734;51.046;13.778;2022-12-18T03:16:11;25.00;;;14.43;;
23129;SDS011;11734;51.046;13.778;2022-12-18T03:18:47;24.17;;;15.10;;
23129;SDS011;11734;51.046;13.778;2022-12-18T03:21:15;21.90;;;13.47;;
23129;SDS011;11734;51.046;13.778;2022-12-18T03:23:44;22.73;;;13.90;;
23129;SDS011;11734;51.046;13.778;2022-12-18T03:26:16;21.23;;;12.43;;
23129;SDS011;11734;51.046;13.778;2022-12-18T03:28:46;20.43;;;12.70;;
23129;SDS011;11734;51.046;13.778;2022-12-18T03:31:18;19.87;;;12.30;;
23129;SDS011;11734;51.046;13.778;2022-12-18T03:33:57;21.50;;;12.77;;
23129;SDS011;11734;51.046;13.778;2022-12-18T03:36:33;19.23;;;12.47;;
23129;SDS011;11734;51.046;13.778;2022-12-18T03:39:01;20.90;;;12.77;;
23129;SDS011;11734;51.046;13.778;2022-12-18T03:41:34;18.47;;;11.70;;
23129;SDS011;11734;51.046;13.778;2022-12-18T03:49:25;18.63;;;11.57;;
23129;SDS011;11734;51.046;13.778;2022-12-18T03:52:05;19.87;;;12.47;;
23129;SDS011;11734;51.046;13.778;2022-12-18T03:54:33;19.43;;;11.80;;
23129;SDS011;11734;51.046;13.778;2022-12-18T03:57:13;17.50;;;11.20;;
23129;SDS011;11734;51.046;13.778;2022-12-18T03:59:43;18.07;;;11.33;;
23129;SDS011;11734;51.046;13.778;2022-12-18T04:02:14;18.67;;;10.80;;
23129;SDS011;11734;51.046;13.778;2022-12-18T04:04:44;18.03;;;11.60;;
23129;SDS011;11734;51.046;13.778;2022-12-18T04:07:13;19.03;;;11.33;;
23129;SDS011;11734;51.046;13.778;2022-12-18T04:09:43;17.57;;;10.60;;
23129;SDS011;11734;51.046;13.778;2022-12-18T04:12:13;17.37;;;10.27;;
23129;SDS011;11734;51.046;13.778;2022-12-18T04:14:41;17.33;;;10.53;;
23129;SDS011;11734;51.046;13.778;2022-12-18T04:17:08;20.90;;;11.33;;
23129;SDS011;11734;51.046;13.778;2022-12-18T04:19:36;18.13;;;11.03;;
23129;SDS011;11734;51.046;13.778;2022-12-18T04:22:03;17.27;;;10.90;;
23129;SDS011;11734;51.046;13.778;2022-12-18T04:24:38;17.53;;;10.63;;
23129;SDS011;11734;51.046;13.778;2022-12-18T04:27:12;18.80;;;11.03;;
23129;SDS011;11734;51.046;13.778;2022-12-18T04:29:45;17.07;;;11.00;;
23129;SDS011;11734;51.046;13.778;2022-12-18T04:32:13;18.93;;;11.33;;
23129;SDS011;11734;51.046;13.778;2022-12-18T04:34:42;16.83;;;10.23;;
23129;SDS011;11734;51.046;13.778;2022-12-18T04:37:10;16.00;;;10.47;;
23129;SDS011;11734;51.046;13.778;2022-12-18T04:39:38;17.47;;;10.70;;
23129;SDS011;11734;51.046;13.778;2022-12-18T04:42:12;17.57;;;11.00;;
23129;SDS011;11734;51.046;13.778;2022-12-18T04:44:40;17.23;;;10.67;;
23129;SDS011;11734;51.046;13.778;2022-12-18T04:47:07;17.23;;;10.93;;
23129;SDS011;11734;51.046;13.778;2022-12-18T04:49:34;17.47;;;11.07;;
23129;SDS011;11734;51.046;13.778;2022-12-18T04:52:01;18.20;;;11.37;;
23129;SDS011;11734;51.046;13.778;2022-12-18T04:54:31;17.70;;;10.33;;
23129;SDS011;11734;51.046;13.778;2022-12-18T04:56:59;16.03;;;10.60;;
23129;SDS011;11734;51.046;13.778;2022-12-18T04:59:26;18.27;;;10.90;;
23129;SDS011;11734;51.046;13.778;2022-12-18T05:01:53;18.07;;;10.60;;
23129;SDS011;11734;51.046;13.778;2022-12-18T05:04:21;16.80;;;10.20;;
23129;SDS011;11734;51.046;13.778;2022-12-18T05:06:48;16.37;;;11.07;;
23129;SDS011;11734;51.046;13.778;2022-12-18T05:09:15;18.67;;;11.00;;
23129;SDS011;11734;51.046;13.778;2022-12-18T05:11:44;17.33;;;10.80;;
23129;SDS011;11734;51.046;13.778;2022-12-18T05:14:12;19.40;;;10.90;;
23129;SDS011;11734;51.046;13.778;2022-12-18T05:16:40;17.40;;;10.90;;
23129;SDS011;11734;51.046;13.778;2022-12-18T05:19:07;16.77;;;10.43;;
23129;SDS011;11734;51.046;13.778;2022-12-18T05:21:34;18.10;;;11.13;;
23129;SDS011;11734;51.046;13.778;2022-12-18T05:24:02;15.53;;;9.93;;
23129;SDS011;11734;51.046;13.778;2022-12-18T05:26:29;18.47;;;11.13;;
23129;SDS011;11734;51.046;13.778;2022-12-18T05:28:56;18.03;;;10.37;;
23129;SDS011;11734;51.046;13.778;2022-12-18T05:31:24;16.53;;;10.50;;
23129;SDS011;11734;51.046;13.778;2022-12-18T05:33:51;18.13;;;10.40;;
23129;SDS011;11734;51.046;13.778;2022-12-18T05:36:18;15.93;;;10.70;;
23129;SDS011;11734;51.046;13.778;2022-12-18T05:38:46;16.40;;;10.50;;
23129;SDS011;11734;51.046;13.778;2022-12-18T05:41:13;16.27;;;10.30;;
23129;SDS011;11734;51.046;13.778;2022-12-18T05:43:40;18.27;;;10.87;;
23129;SDS011;11734;51.046;13.778;2022-12-18T05:46:13;16.73;;;10.30;;
23129;SDS011;11734;51.046;13.778;2022-12-18T05:48:41;17.77;;;10.80;;
23129;SDS011;11734;51.046;13.778;2022-12-18T05:51:10;17.73;;;11.00;;
23129;SDS011;11734;51.046;13.778;2022-12-18T05:53:37;19.30;;;11.17;;
23129;SDS011;11734;51.046;13.778;2022-12-18T05:56:08;18.17;;;11.03;;
23129;SDS011;11734;51.046;13.778;2022-12-18T05:58:36;16.80;;;10.50;;
23129;SDS011;11734;51.046;13.778;2022-12-18T06:01:07;18.33;;;10.77;;
23129;SDS011;11734;51.046;13.778;2022-12-18T06:06:25;17.23;;;10.47;;
23129;SDS011;11734;51.046;13.778;2022-12-18T06:08:53;18.00;;;10.67;;
23129;SDS011;11734;51.046;13.778;2022-12-18T06:11:22;15.63;;;10.30;;
23129;SDS011;11734;51.046;13.778;2022-12-18T06:13:51;17.67;;;10.47;;
23129;SDS011;11734;51.046;13.778;2022-12-18T06:16:23;17.57;;;10.80;;
23129;SDS011;11734;51.046;13.778;2022-12-18T06:18:51;16.33;;;10.40;;
23129;SDS011;11734;51.046;13.778;2022-12-18T06:21:18;17.30;;;10.63;;
23129;SDS011;11734;51.046;13.778;2022-12-18T06:23:46;15.70;;;10.13;;
23129;SDS011;11734;51.046;13.778;2022-12-18T06:26:13;17.30;;;10.73;;
23129;SDS011;11734;51.046;13.778;2022-12-18T06:28:40;16.13;;;9.97;;
23129;SDS011;11734;51.046;13.778;2022-12-18T06:31:08;15.03;;;10.03;;
23129;SDS011;11734;51.046;13.778;2022-12-18T06:33:35;17.87;;;11.77;;
23129;SDS011;11734;51.046;13.778;2022-12-18T06:36:10;16.27;;;10.50;;
23129;SDS011;11734;51.046;13.778;2022-12-18T06:38:38;18.70;;;10.73;;
23129;SDS011;11734;51.046;13.778;2022-12-18T06:41:12;19.47;;;10.60;;
23129;SDS011;11734;51.046;13.778;2022-12-18T06:43:39;18.30;;;10.77;;
23129;SDS011;11734;51.046;13.778;2022-12-18T06:46:08;18.60;;;11.03;;
23129;SDS011;11734;51.046;13.778;2022-12-18T06:48:35;17.63;;;10.60;;
23129;SDS011;11734;51.046;13.778;2022-12-18T06:51:02;17.83;;;10.83;;
23129;SDS011;11734;51.046;13.778;2022-12-18T06:53:31;19.30;;;11.47;;
23129;SDS011;11734;51.046;13.778;2022-12-18T06:56:02;19.33;;;11.73;;
23129;SDS011;11734;51.046;13.778;2022-12-18T06:58:35;16.87;;;11.20;;
23129;SDS011;11734;51.046;13.778;2022-12-18T07:01:03;18.50;;;11.63;;
23129;SDS011;11734;51.046;13.778;2022-12-18T07:03:31;17.73;;;11.83;;
23129;SDS011;11734;51.046;13.778;2022-12-18T07:05:58;20.30;;;11.63;;
23129;SDS011;11734;51.046;13.778;2022-12-18T07:08:25;17.63;;;11.20;;
23129;SDS011;11734;51.046;13.778;2022-12-18T07:10:53;18.57;;;11.43;;
23129;SDS011;11734;51.046;13.778;2022-12-18T07:13:22;19.37;;;11.63;;
23129;SDS011;11734;51.046;13.778;2022-12-18T07:15:49;18.83;;;11.73;;
23129;SDS011;11734;51.046;13.778;2022-12-18T07:18:16;20.30;;;12.50;;
23129;SDS011;11734;51.046;13.778;2022-12-18T07:20:44;21.77;;;13.27;;
23129;SDS011;11734;51.046;13.778;2022-12-18T07:23:13;23.30;;;12.63;;
23129;SDS011;11734;51.046;13.778;2022-12-18T07:25:40;22.43;;;13.40;;
23129;SDS011;11734;51.046;13.778;2022-12-18T07:28:07;21.83;;;12.77;;
23129;SDS011;11734;51.046;13.778;2022-12-18T07:30:42;22.43;;;12.57;;
23129;SDS011;11734;51.046;13.778;2022-12-18T07:33:09;19.93;;;12.27;;
23129;SDS011;11734;51.046;13.778;2022-12-18T07:35:36;20.70;;;12.73;;
23129;SDS011;11734;51.046;13.778;2022-12-18T07:38:04;23.57;;;13.43;;
23129;SDS011;11734;51.046;13.778;2022-12-18T07:40:32;23.87;;;13.30;;
23129;SDS011;11734;51.046;13.778;2022-12-18T07:42:59;21.83;;;13.47;;
23129;SDS011;11734;51.046;13.778;2022-12-18T07:45:26;20.90;;;13.50;;
23129;SDS011;11734;51.046;13.778;2022-12-18T07:47:57;22.53;;;13.97;;
23129;SDS011;11734;51.046;13.778;2022-12-18T07:50:24;20.23;;;12.67;;
23129;SDS011;11734;51.046;13.778;2022-12-18T07:52:51;23.17;;;14.40;;
23129;SDS011;11734;51.046;13.778;2022-12-18T07:55:18;24.00;;;14.30;;
23129;SDS011;11734;51.046;13.778;2022-12-18T07:57:46;23.70;;;13.97;;
23129;SDS011;11734;51.046;13.778;2022-12-18T08:00:17;22.50;;;14.30;;
23129;SDS011;11734;51.046;13.778;2022-12-18T08:02:46;22.73;;;13.90;;
23129;SDS011;11734;51.046;13.778;2022-12-18T08:05:14;23.33;;;14.03;;
23129;SDS011;11734;51.046;13.778;2022-12-18T08:07:41;22.03;;;13.77;;
23129;SDS011;11734;51.046;13.778;2022-12-18T08:10:08;23.10;;;14.13;;
23129;SDS011;11734;51.046;13.778;2022-12-18T08:12:37;25.00;;;14.87;;
23129;SDS011;11734;51.046;13.778;2022-12-18T08:15:04;23.87;;;14.67;;
23129;SDS011;11734;51.046;13.778;2022-12-18T08:17:32;25.73;;;15.23;;
23129;SDS011;11734;51.046;13.778;2022-12-18T08:20:00;27.40;;;16.53;;
23129;SDS011;11734;51.046;13.778;2022-12-18T08:22:27;33.77;;;18.87;;
23129;SDS011;11734;51.046;13.778;2022-12-18T08:24:54;32.47;;;18.80;;
23129;SDS011;11734;51.046;13.778;2022-12-18T08:27:21;32.20;;;19.23;;
23129;SDS011;11734;51.046;13.778;2022-12-18T08:29:56;38.90;;;19.37;;
23129;SDS011;11734;51.046;13.778;2022-12-18T08:32:24;30.90;;;18.00;;
23129;SDS011;11734;51.046;13.778;2022-12-18T08:34:52;28.23;;;16.37;;
23129;SDS011;11734;51.046;13.778;2022-12-18T08:37:19;28.63;;;15.67;;
23129;SDS011;11734;51.046;13.778;2022-12-18T08:39:47;25.80;;;15.40;;
23129;SDS011;11734;51.046;13.778;2022-12-18T08:42:14;26.67;;;15.00;;
23129;SDS011;11734;51.046;13.778;2022-12-18T08:45:00;25.40;;;14.40;;
23129;SDS011;11734;51.046;13.778;2022-12-18T08:47:27;28.07;;;15.40;;
23129;SDS011;11734;51.046;13.778;2022-12-18T08:49:55;27.00;;;15.60;;
23129;SDS011;11734;51.046;13.778;2022-12-18T08:52:22;24.03;;;14.47;;
23129;SDS011;11734;51.046;13.778;2022-12-18T08:54:50;25.73;;;15.77;;
23129;SDS011;11734;51.046;13.778;2022-12-18T08:57:17;26.47;;;15.97;;
23129;SDS011;11734;51.046;13.778;2022-12-18T08:59:44;52.07;;;27.83;;
23129;SDS011;11734;51.046;13.778;2022-12-18T09:02:11;37.27;;;20.93;;
23129;SDS011;11734;51.046;13.778;2022-12-18T09:04:39;30.27;;;17.50;;
23129;SDS011;11734;51.046;13.778;2022-12-18T09:07:06;29.23;;;16.63;;
23129;SDS011;11734;51.046;13.778;2022-12-18T09:09:34;29.73;;;16.97;;
23129;SDS011;11734;51.046;13.778;2022-12-18T09:12:01;30.80;;;17.93;;
23129;SDS011;11734;51.046;13.778;2022-12-18T09:14:28;32.33;;;18.40;;
23129;SDS011;11734;51.046;13.778;2022-12-18T09:16:56;28.77;;;17.17;;
23129;SDS011;11734;51.046;13.778;2022-12-18T09:19:23;32.20;;;18.43;;
23129;SDS011;11734;51.046;13.778;2022-12-18T09:21:50;34.10;;;18.50;;
23129;SDS011;11734;51.046;13.778;2022-12-18T09:24:17;33.60;;;19.30;;
23129;SDS011;11734;51.046;13.778;2022-12-18T09:26:48;35.20;;;20.07;;
23129;SDS011;11734;51.046;13.778;2022-12-18T09:29:22;36.87;;;19.10;;
23129;SDS011;11734;51.046;13.778;2022-12-18T09:31:50;37.13;;;20.67;;
23129;SDS011;11734;51.046;13.778;2022-12-18T09:34:17;36.07;;;19.83;;
23129;SDS011;11734;51.046;13.778;2022-12-18T09:36:47;34.23;;;18.77;;
23129;SDS011;11734;51.046;13.778;2022-12-18T09:39:15;34.73;;;19.50;;
23129;SDS011;11734;51.046;13.778;2022-12-18T09:44:30;33.23;;;17.03;;
23129;SDS011;11734;51.046;13.778;2022-12-18T09:49:39;31.83;;;17.53;;
23129;SDS011;11734;51.046;13.778;2022-12-18T09:54:36;30.47;;;16.47;;
23129;SDS011;11734;51.046;13.778;2022-12-18T09:57:15;30.03;;;15.97;;
23129;SDS011;11734;51.046;13.778;2022-12-18T09:59:42;30.57;;;16.73;;
23129;SDS011;11734;51.046;13.778;2022-12-18T10:02:14;33.43;;;16.93;;
23129;SDS011;11734;51.046;13.778;2022-12-18T10:04:42;30.03;;;15.97;;
23129;SDS011;11734;51.046;13.778;2022-12-18T10:07:13;31.73;;;16.37;;
23129;SDS011;11734;51.046;13.778;2022-12-18T10:10:46;28.73;;;16.10;;
23129;SDS011;11734;51.046;13.778;2022-12-18T10:28:13;31.17;;;15.83;;
23129;SDS011;11734;51.046;13.778;2022-12-18T10:30:42;27.87;;;14.93;;
23129;SDS011;11734;51.046;13.778;2022-12-18T10:33:17;30.97;;;15.00;;
23129;SDS011;11734;51.046;13.778;2022-12-18T10:35:45;27.50;;;14.83;;
23129;SDS011;11734;51.046;13.778;2022-12-18T10:43:22;32.47;;;14.60;;
23129;SDS011;11734;51.046;13.778;2022-12-18T10:48:30;29.20;;;15.00;;
23129;SDS011;11734;51.046;13.778;2022-12-18T10:50:58;25.87;;;12.97;;
23129;SDS011;11734;51.046;13.778;2022-12-18T10:53:42;27.90;;;14.30;;
23129;SDS011;11734;51.046;13.778;2022-12-18T10:59:15;30.80;;;15.67;;
23129;SDS011;11734;51.046;13.778;2022-12-18T11:04:23;27.20;;;14.17;;
23129;SDS011;11734;51.046;13.778;2022-12-18T11:06:58;23.13;;;12.83;;
23129;SDS011;11734;51.046;13.778;2022-12-18T11:09:36;24.60;;;12.73;;
23129;SDS011;11734;51.046;13.778;2022-12-18T11:12:22;23.00;;;12.73;;
23129;SDS011;11734;51.046;13.778;2022-12-18T11:14:50;22.97;;;12.57;;
23129;SDS011;11734;51.046;13.778;2022-12-18T11:17:19;24.77;;;12.87;;
23129;SDS011;11734;51.046;13.778;2022-12-18T11:19:56;22.00;;;12.00;;
23129;SDS011;11734;51.046;13.778;2022-12-18T11:22:30;22.00;;;10.70;;
23129;SDS011;11734;51.046;13.778;2022-12-18T11:24:59;23.73;;;12.33;;
23129;SDS011;11734;51.046;13.778;2022-12-18T11:27:51;22.23;;;11.57;;
23129;SDS011;11734;51.046;13.778;2022-12-18T11:30:32;23.57;;;11.77;;
23129;SDS011;11734;51.046;13.778;2022-12-18T11:33:02;18.27;;;9.87;;
23129;SDS011;11734;51.046;13.778;2022-12-18T11:40:53;20.37;;;11.73;;
23129;SDS011;11734;51.046;13.778;2022-12-18T11:43:32;22.93;;;11.73;;
23129;SDS011;11734;51.046;13.778;2022-12-18T11:46:09;22.70;;;12.70;;
23129;SDS011;11734;51.046;13.778;2022-12-18T11:48:58;18.23;;;10.10;;
23129;SDS011;11734;51.046;13.778;2022-12-18T11:51:38;23.10;;;11.90;;
23129;SDS011;11734;51.046;13.778;2022-12-18T11:54:14;22.60;;;12.53;;
23129;SDS011;11734;51.046;13.778;2022-12-18T11:56:49;23.93;;;13.57;;
23129;SDS011;11734;51.046;13.778;2022-12-18T12:02:03;21.33;;;11.63;;
23129;SDS011;11734;51.046;13.778;2022-12-18T12:18:33;21.70;;;10.17;;
23129;SDS011;11734;51.046;13.778;2022-12-18T12:31:43;20.97;;;11.47;;
23129;SDS011;11734;51.046;13.778;2022-12-18T12:36:55;23.17;;;13.23;;
23129;SDS011;11734;51.046;13.778;2022-12-18T12:39:31;20.93;;;11.70;;
23129;SDS011;11734;51.046;13.778;2022-12-18T12:42:01;20.80;;;11.93;;
23129;SDS011;11734;51.046;13.778;2022-12-18T12:44:49;18.07;;;10.20;;
23129;SDS011;11734;51.046;13.778;2022-12-18T12:47:23;19.03;;;10.00;;
23129;SDS011;11734;51.046;13.778;2022-12-18T12:50:03;24.90;;;11.80;;
23129;SDS011;11734;51.046;13.778;2022-12-18T12:52:34;23.67;;;11.57;;
23129;SDS011;11734;51.046;13.778;2022-12-18T12:55:14;22.23;;;11.40;;
23129;SDS011;11734;51.046;13.778;2022-12-18T13:01:01;25.00;;;12.73;;
23129;SDS011;11734;51.046;13.778;2022-12-18T13:07:08;25.93;;;14.03;;
23129;SDS011;11734;51.046;13.778;2022-12-18T13:10:10;25.13;;;13.80;;
23129;SDS011;11734;51.046;13.778;2022-12-18T13:18:33;28.00;;;14.33;;
23129;SDS011;11734;51.046;13.778;2022-12-18T13:23:30;28.50;;;15.40;;
23129;SDS011;11734;51.046;13.778;2022-12-18T13:31:53;31.30;;;16.20;;
23129;SDS011;11734;51.046;13.778;2022-12-18T13:34:24;25.57;;;13.27;;
23129;SDS011;11734;51.046;13.778;2022-12-18T13:39:58;28.03;;;15.20;;
23129;SDS011;11734;51.046;13.778;2022-12-18T13:45:35;27.13;;;14.27;;
23129;SDS011;11734;51.046;13.778;2022-12-18T13:48:17;28.73;;;14.60;;
23129;SDS011;11734;51.046;13.778;2022-12-18T13:50:52;27.43;;;15.13;;
23129;SDS011;11734;51.046;13.778;2022-12-18T13:53:25;23.53;;;13.20;;
23129;SDS011;11734;51.046;13.778;2022-12-18T13:55:56;21.70;;;13.30;;
23129;SDS011;11734;51.046;13.778;2022-12-18T13:58:23;24.13;;;13.27;;
23129;SDS011;11734;51.046;13.778;2022-12-18T14:00:50;21.97;;;13.07;;
23129;SDS011;11734;51.046;13.778;2022-12-18T14:03:19;19.97;;;12.00;;
23129;SDS011;11734;51.046;13.778;2022-12-18T14:06:21;24.00;;;12.83;;
23129;SDS011;11734;51.046;13.778;2022-12-18T14:08:43;25.17;;;12.23;;
23129;SDS011;11734;51.046;13.778;2022-12-18T14:11:21;22.17;;;12.20;;
23129;SDS011;11734;51.046;13.778;2022-12-18T14:13:52;22.47;;;11.73;;
23129;SDS011;11734;51.046;13.778;2022-12-18T14:16:18;18.27;;;10.50;;
23129;SDS011;11734;51.046;13.778;2022-12-18T14:18:48;20.70;;;12.33;;
23129;SDS011;11734;51.046;13.778;2022-12-18T14:21:29;20.97;;;11.67;;
23129;SDS011;11734;51.046;13.778;2022-12-18T14:26:47;22.50;;;12.23;;
23129;SDS011;11734;51.046;13.778;2022-12-18T14:34:45;22.43;;;11.87;;
23129;SDS011;11734;51.046;13.778;2022-12-18T14:37:20;26.03;;;13.23;;
23129;SDS011;11734;51.046;13.778;2022-12-18T14:39:55;24.10;;;12.33;;
23129;SDS011;11734;51.046;13.778;2022-12-18T14:42:23;25.33;;;13.20;;
23129;SDS011;11734;51.046;13.778;2022-12-18T14:51:23;26.43;;;12.23;;
23129;SDS011;11734;51.046;13.778;2022-12-18T14:56:33;25.00;;;12.73;;
23129;SDS011;11734;51.046;13.778;2022-12-18T14:59:03;18.93;;;9.87;;
23129;SDS011;11734;51.046;13.778;2022-12-18T15:02:09;24.30;;;13.50;;
23129;SDS011;11734;51.046;13.778;2022-12-18T15:05:14;24.13;;;13.07;;
23129;SDS011;11734;51.046;13.778;2022-12-18T15:07:45;26.70;;;11.93;;
23129;SDS011;11734;51.046;13.778;2022-12-18T15:12:44;21.60;;;12.40;;
23129;SDS011;11734;51.046;13.778;2022-12-18T15:18:05;23.90;;;13.17;;
23129;SDS011;11734;51.046;13.778;2022-12-18T15:20:53;23.07;;;12.67;;
23129;SDS011;11734;51.046;13.778;2022-12-18T15:23:24;23.87;;;12.80;;
23129;SDS011;11734;51.046;13.778;2022-12-18T15:25:57;25.80;;;12.80;;
23129;SDS011;11734;51.046;13.778;2022-12-18T15:28:26;23.80;;;12.43;;
23129;SDS011;11734;51.046;13.778;2022-12-18T15:30:58;24.60;;;13.23;;
23129;SDS011;11734;51.046;13.778;2022-12-18T15:36:20;22.37;;;13.03;;
23129;SDS011;11734;51.046;13.778;2022-12-18T15:38:55;25.23;;;13.63;;
23129;SDS011;11734;51.046;13.778;2022-12-18T15:41:32;25.57;;;14.03;;
23129;SDS011;11734;51.046;13.778;2022-12-18T15:44:01;22.73;;;12.30;;
23129;SDS011;11734;51.046;13.778;2022-12-18T15:46:29;22.73;;;12.73;;
23129;SDS011;11734;51.046;13.778;2022-12-18T15:48:57;22.73;;;11.90;;
23129;SDS011;11734;51.046;13.778;2022-12-18T15:51:34;25.00;;;13.87;;
23129;SDS011;11734;51.046;13.778;2022-12-18T15:54:04;26.53;;;13.90;;
23129;SDS011;11734;51.046;13.778;2022-12-18T15:56:35;23.77;;;12.77;;
23129;SDS011;11734;51.046;13.778;2022-12-18T15:59:22;25.40;;;13.93;;
23129;SDS011;11734;51.046;13.778;2022-12-18T16:01:49;23.77;;;12.80;;
23129;SDS011;11734;51.046;13.778;2022-12-18T16:04:20;27.43;;;14.07;;
23129;SDS011;11734;51.046;13.778;2022-12-18T16:06:48;25.27;;;12.77;;
23129;SDS011;11734;51.046;13.778;2022-12-18T16:09:36;25.90;;;14.77;;
23129;SDS011;11734;51.046;13.778;2022-12-18T16:12:03;29.97;;;15.40;;
23129;SDS011;11734;51.046;13.778;2022-12-18T16:14:31;29.73;;;13.00;;
23129;SDS011;11734;51.046;13.778;2022-12-18T16:17:00;23.83;;;13.17;;
23129;SDS011;11734;51.046;13.778;2022-12-18T16:19:29;25.63;;;13.83;;
23129;SDS011;11734;51.046;13.778;2022-12-18T16:21:56;25.17;;;13.03;;
23129;SDS011;11734;51.046;13.778;2022-12-18T16:24:25;25.63;;;13.27;;
23129;SDS011;11734;51.046;13.778;2022-12-18T16:26:55;27.87;;;14.17;;
23129;SDS011;11734;51.046;13.778;2022-12-18T16:29:23;27.00;;;13.47;;
23129;SDS011;11734;51.046;13.778;2022-12-18T16:31:54;26.10;;;13.73;;
23129;SDS011;11734;51.046;13.778;2022-12-18T16:37:03;25.43;;;13.60;;
23129;SDS011;11734;51.046;13.778;2022-12-18T16:39:32;26.50;;;15.07;;
23129;SDS011;11734;51.046;13.778;2022-12-18T16:42:01;26.17;;;14.90;;
23129;SDS011;11734;51.046;13.778;2022-12-18T16:44:31;27.17;;;14.20;;
23129;SDS011;11734;51.046;13.778;2022-12-18T16:46:59;28.30;;;14.53;;
23129;SDS011;11734;51.046;13.778;2022-12-18T16:49:28;26.73;;;14.53;;
23129;SDS011;11734;51.046;13.778;2022-12-18T16:51:56;23.87;;;13.37;;
23129;SDS011;11734;51.046;13.778;2022-12-18T16:54:25;27.23;;;14.63;;
23129;SDS011;11734;51.046;13.778;2022-12-18T16:56:56;27.93;;;14.90;;
23129;SDS011;11734;51.046;13.778;2022-12-18T16:59:24;24.83;;;13.27;;
23129;SDS011;11734;51.046;13.778;2022-12-18T17:01:52;29.87;;;14.33;;
23129;SDS011;11734;51.046;13.778;2022-12-18T17:04:19;28.03;;;13.07;;
23129;SDS011;11734;51.046;13.778;2022-12-18T17:06:46;25.40;;;14.00;;
23129;SDS011;11734;51.046;13.778;2022-12-18T17:09:17;25.13;;;14.03;;